Stations météo

réclame
Mon MeteoGroup
Carrion de los Condes, Espagne (8068): Température de l'air & dewpoint: 29.07.2020 18:00:00 - 04.08.2020 18:00:00 (CEST)Carrion de los Condes, Espagne (8068): Vitesse du vent & gusts: 29.07.2020 18:00:00 - 04.08.2020 18:00:00 (CEST)Carrion de los Condes, Espagne (8068): Direction du vent: 29.07.2020 18:00:00 - 04.08.2020 18:00:00 (CEST)Carrion de los Condes, Espagne (8068): visibility: 29.07.2020 18:00:00 - 04.08.2020 18:00:00 (CEST)Carrion de los Condes, Espagne (8068): Ensoleillement: 29.07.2020 18:00:00 - 04.08.2020 18:00:00 (CEST)Carrion de los Condes, Espagne (8068): Quantités de précipitations: 29.07.2020 18:00:00 - 04.08.2020 18:00:00 (CEST)
Date & Time tt [°C] td [°C] ff [km/h] ff [knt] fx [km/h] fx [knt] dd vv [km] sd [min] rr [mm]
04.08.2020 18:00:00 26,1 7,1 7 4 24 13 NNE 20 60 0,0
04.08.2020 17:00:00 25,9 7,0 8 4 24 13 NE 20 60 0,0
04.08.2020 16:00:00 25,9 8,0 8 5 24 13 E 20 60 0,0
04.08.2020 15:00:00 24,5 9,3 6 3 22 12 NNE 20 60 0,0
04.08.2020 14:00:00 23,4 9,4 9 5 24 13 E 20 60 -
04.08.2020 13:00:00 21,8 9,9 10 5 26 14 NE 20 60 0,0
04.08.2020 12:00:00 20,3 10,2 11 6 29 15 ENE 20 60 0,0
04.08.2020 11:00:00 18,6 10,6 10 6 29 15 E 20 60 0,0
04.08.2020 10:00:00 16,3 9,9 11 6 28 15 ENE 20 60 0,0
04.08.2020 09:00:00 14,3 8,0 6 4 18 10 ENE 20 60 0,0
04.08.2020 08:00:00 10,8 7,4 4 2 7 4 N 20 22 -
04.08.2020 07:00:00 9,7 7,1 4 2 7 4 NNE 20 0 0,0
04.08.2020 06:00:00 11,1 6,7 2 1 10 5 ENE 20 0 0,0
04.08.2020 05:00:00 11,4 7,7 1 1 8 4 ENE 20 0 0,0
04.08.2020 04:00:00 12,3 8,0 3 2 12 7 NE 20 0 0,0
04.08.2020 03:00:00 13,0 7,7 4 2 16 9 ENE 20 0 0,0
04.08.2020 02:00:00 13,8 6,7 6 3 16 9 ENE 20 0 -
04.08.2020 01:00:00 14,5 8,3 6 3 21 11 ENE 20 0 0,0
04.08.2020 00:00:00 15,5 8,9 9 5 27 15 E 20 0 0,0
03.08.2020 23:00:00 16,9 9,3 10 5 29 16 E 20 0 0,0
03.08.2020 22:00:00 18,9 10,2 10 5 32 18 ENE 20 0 0,0
03.08.2020 21:00:00 21,5 10,0 10 6 30 16 ENE 20 0 0,0
03.08.2020 20:00:00 23,5 9,2 11 6 30 16 E 20 24 -
03.08.2020 19:00:00 25,2 8,3 8 5 24 13 E 20 31 0,0
03.08.2020 18:00:00 26,8 6,2 6 3 16 8 NW 20 60 0,0
03.08.2020 17:00:00 26,4 7,4 3 2 17 9 WNW 20 60 0,0
03.08.2020 16:00:00 25,5 6,1 6 3 20 11 NW 20 60 0,0
03.08.2020 15:00:00 25,0 8,5 4 2 13 7 W 20 60 0,0
03.08.2020 14:00:00 23,0 8,3 5 3 18 10 N 20 60 -
03.08.2020 13:00:00 22,1 10,3 4 2 11 6 WSW 20 60 0,0
03.08.2020 12:00:00 19,9 8,9 6 3 14 8 NNW 20 60 0,0
03.08.2020 11:00:00 18,2 9,0 3 1 10 6 NW 20 60 0,0
03.08.2020 10:00:00 16,7 8,9 5 3 18 10 NE 20 60 0,0
03.08.2020 09:00:00 14,2 9,4 8 4 15 8 NE 20 60 0,0
03.08.2020 08:00:00 11,5 9,2 3 2 10 6 NNE 20 25 -
03.08.2020 07:00:00 10,8 8,5 4 2 10 5 N 20 0 0,0
03.08.2020 06:00:00 11,4 8,7 3 2 11 6 NE 20 0 0,0
03.08.2020 05:00:00 12,4 9,0 6 4 14 7 NE 20 0 0,0
03.08.2020 04:00:00 13,1 9,2 5 3 16 8 ENE 20 0 0,0
03.08.2020 03:00:00 14,3 9,7 7 4 25 14 NE 20 0 0,0
03.08.2020 02:00:00 14,7 9,6 8 4 31 17 E 20 0 -
03.08.2020 01:00:00 14,9 9,0 9 5 27 15 ENE 20 0 0,0
03.08.2020 00:00:00 15,2 9,0 10 6 29 16 ENE 20 0 0,0
02.08.2020 23:00:00 15,9 9,0 10 5 31 17 ENE 20 0 0,0
02.08.2020 22:00:00 16,6 10,0 13 7 32 18 ENE 20 0 0,0
02.08.2020 21:00:00 18,4 10,5 10 5 31 17 ENE 20 0 0,0
02.08.2020 20:00:00 20,1 10,2 10 6 27 15 E 20 14 -
02.08.2020 19:00:00 21,5 10,3 11 6 33 18 NE 20 54 0,0
02.08.2020 18:00:00 21,9 10,4 13 7 31 17 ENE 20 14 0,0
02.08.2020 17:00:00 23,2 10,3 12 7 32 17 NE 20 29 0,0
02.08.2020 16:00:00 23,8 10,4 11 6 29 16 E 20 55 0,0
02.08.2020 15:00:00 23,3 9,7 11 6 35 19 NE 20 47 0,0
02.08.2020 14:00:00 23,0 10,0 10 5 33 18 ENE 20 44 -
02.08.2020 13:00:00 22,4 11,1 13 7 32 17 NE 20 56 0,0
02.08.2020 12:00:00 21,2 11,6 14 8 34 18 NE 20 58 0,0
02.08.2020 11:00:00 20,0 11,8 15 8 32 17 NE 20 60 0,0
02.08.2020 10:00:00 18,1 12,1 13 7 34 18 NE 20 50 0,0
02.08.2020 09:00:00 17,1 12,0 16 9 33 18 NE 20 60 0,0
02.08.2020 08:00:00 15,2 12,0 10 6 27 14 NNE 20 25 -
02.08.2020 07:00:00 14,7 11,9 13 7 27 15 NNE 20 0 0,0
02.08.2020 06:00:00 14,7 11,9 9 5 28 15 NE 20 0 0,0
02.08.2020 05:00:00 15,0 12,1 12 6 27 14 NNE 20 0 0,0
02.08.2020 04:00:00 15,1 12,0 13 7 34 19 NE 20 0 0,0
02.08.2020 03:00:00 15,2 12,0 13 7 39 21 NE 20 0 0,0
02.08.2020 02:00:00 15,3 11,7 11 6 30 16 NE 20 0 -
02.08.2020 01:00:00 15,9 11,9 13 7 29 16 NE 20 0 0,0
02.08.2020 00:00:00 16,6 12,1 15 8 35 19 NE 20 0 0,0
01.08.2020 23:00:00 17,2 12,5 15 8 42 23 NE 20 0 0,0
01.08.2020 22:00:00 18,5 12,7 18 10 42 23 NE 20 0 0,0
01.08.2020 21:00:00 20,8 13,0 16 9 41 22 ENE 20 0 0,0
01.08.2020 20:00:00 23,6 13,5 17 9 50 27 ENE 20 42 -
01.08.2020 19:00:00 26,2 13,7 16 9 39 21 ENE 20 34 0,0
01.08.2020 18:00:00 30,3 8,7 8 5 19 11 NNE 20 60 0,0
01.08.2020 17:00:00 30,0 8,4 5 3 16 9 NNE 20 60 0,0
01.08.2020 16:00:00 29,7 8,1 5 3 13 7 N 20 60 0,0
01.08.2020 15:00:00 28,8 9,6 3 1 13 7 N 20 60 0,0
01.08.2020 14:00:00 27,0 11,1 4 2 13 7 SW 20 60 -
01.08.2020 13:00:00 26,2 11,1 6 3 16 8 ENE 20 60 0,0
01.08.2020 12:00:00 24,2 9,3 6 3 17 9 E 20 60 0,0
01.08.2020 11:00:00 21,9 9,4 9 5 20 11 NNE 20 60 0,0
01.08.2020 10:00:00 19,9 8,9 7 4 21 11 ENE 20 60 0,0
01.08.2020 09:00:00 17,4 9,8 6 3 16 8 NNE 20 60 0,0
01.08.2020 08:00:00 13,6 10,5 4 2 13 7 N 20 23 -
01.08.2020 07:00:00 12,8 10,2 2 1 14 8 N 20 0 0,0
01.08.2020 06:00:00 14,0 9,7 4 2 9 5 ENE 20 0 0,0
01.08.2020 05:00:00 15,2 9,6 3 2 11 6 NE 20 0 0,0
01.08.2020 04:00:00 15,5 9,8 3 2 9 5 ENE 20 0 0,0
01.08.2020 03:00:00 17,7 8,5 4 2 20 11 E 20 0 0,0
01.08.2020 02:00:00 19,7 8,1 11 6 27 15 ENE 20 0 -
01.08.2020 01:00:00 19,8 9,0 9 5 21 12 ENE 20 0 0,0
01.08.2020 00:00:00 21,0 11,0 9 5 23 12 NE 20 0 0,0
31.07.2020 23:00:00 18,8 12,5 1 1 5 3 WNW 20 0 0,0
31.07.2020 22:00:00 22,0 12,5 1 1 6 4 N 20 0 0,0
31.07.2020 21:00:00 26,4 11,3 3 1 17 9 WSW 20 0 0,0
31.07.2020 20:00:00 31,5 1,7 9 5 27 15 SW 20 43 -
31.07.2020 19:00:00 34,2 3,9 6 3 20 11 SSW 20 60 0,0
31.07.2020 18:00:00 34,4 7,4 7 4 27 14 SW 20 60 0,0
31.07.2020 17:00:00 34,2 8,0 7 4 26 14 WSW 20 60 0,0
31.07.2020 16:00:00 33,9 9,2 8 4 22 12 SW 20 60 0,0
31.07.2020 15:00:00 33,1 12,1 9 5 22 12 SSW 20 60 0,0
31.07.2020 14:00:00 32,1 12,3 7 4 21 11 WSW 20 60 -
31.07.2020 13:00:00 29,6 15,7 3 2 9 5 E 20 60 0,0
31.07.2020 12:00:00 27,4 15,7 4 2 8 4 E 20 60 0,0
31.07.2020 11:00:00 25,3 14,4 4 2 10 5 SSW 20 60 0,0
31.07.2020 10:00:00 22,8 15,6 3 2 8 5 SE 20 60 0,0
31.07.2020 09:00:00 19,0 15,3 1 1 5 3 ENE 20 60 0,0
31.07.2020 08:00:00 14,9 - 1 1 6 4 NNW 18 11 -
31.07.2020 07:00:00 14,5 - 2 1 4 2 N 9 0 0,0
31.07.2020 06:00:00 15,0 14,0 0 0 3 1 N 15 0 0,0
31.07.2020 05:00:00 15,6 13,5 0 0 4 2 N 20 0 0,0
31.07.2020 04:00:00 16,6 13,7 1 1 6 3 NNE 20 0 0,0
31.07.2020 03:00:00 18,1 13,8 3 1 16 9 NNW 20 0 0,0
31.07.2020 02:00:00 18,9 13,8 5 3 14 8 NE 20 0 -
31.07.2020 01:00:00 19,8 13,9 3 1 10 6 ENE 20 0 0,0
31.07.2020 00:00:00 20,8 13,9 4 2 18 10 NNE 20 0 0,0
30.07.2020 23:00:00 21,2 14,3 5 3 21 11 NNE 20 0 0,0
30.07.2020 22:00:00 23,2 13,7 11 6 39 21 E 20 0 0,0
30.07.2020 21:00:00 25,9 12,0 10 5 29 16 E 20 0 0,0
30.07.2020 20:00:00 25,6 13,8 8 5 24 13 NE 20 18 -
30.07.2020 19:00:00 22,3 14,9 11 6 29 16 ENE 20 0 4,8
30.07.2020 18:00:00 26,7 10,8 15 8 30 16 N 20 0 0,0
30.07.2020 17:00:00 26,8 10,9 13 7 24 13 N 20 0 0,0
30.07.2020 16:00:00 30,8 10,8 3 2 44 24 N 9 17 0,0
30.07.2020 15:00:00 35,2 11,0 7 4 23 12 S 20 50 0,0
30.07.2020 14:00:00 34,6 11,1 6 3 22 12 SSW 20 60 -
30.07.2020 13:00:00 33,6 12,5 8 4 18 10 S 20 60 0,0
30.07.2020 12:00:00 31,3 12,6 8 4 22 12 SE 20 60 0,0
30.07.2020 11:00:00 28,9 13,6 9 5 23 13 ESE 20 60 0,0
30.07.2020 10:00:00 26,1 13,6 8 4 21 11 E 20 60 0,0
30.07.2020 09:00:00 23,1 13,6 8 4 16 9 NE 20 60 0,0
30.07.2020 08:00:00 20,6 13,3 4 2 18 10 NNE 20 20 -
30.07.2020 07:00:00 20,1 13,4 8 4 18 10 NE 20 0 0,0
30.07.2020 06:00:00 20,4 13,9 8 4 21 11 ENE 20 0 0,0
30.07.2020 05:00:00 21,0 14,4 7 4 25 14 ENE 20 0 0,0
30.07.2020 04:00:00 21,2 14,8 9 5 21 11 NE 20 0 0,0
30.07.2020 03:00:00 22,0 14,9 8 4 22 12 NNE 20 0 0,0
30.07.2020 02:00:00 22,5 15,1 9 5 22 12 NNE 20 0 -
30.07.2020 01:00:00 23,2 15,0 9 5 17 9 NE 20 0 0,0
30.07.2020 00:00:00 24,1 13,9 8 4 18 10 NE 20 0 0,0
29.07.2020 23:00:00 25,8 13,3 6 3 28 15 ENE 20 0 0,0
29.07.2020 22:00:00 26,5 12,5 7 4 18 10 E 20 0 0,0
29.07.2020 21:00:00 27,0 16,6 2 1 6 3 N 20 0 0,0
29.07.2020 20:00:00 30,2 16,6 4 2 7 4 N 20 34 -
29.07.2020 19:00:00 33,6 11,4 3 2 14 7 SE 20 55 0,0
29.07.2020 18:00:00 33,9 10,5 3 2 15 8 W 20 49 0,0

tt = Température de l'air
td = dewpoint
ff = Vitesse du vent
fx = gusts
dd = Direction du vent
vv = visibility
sd = Ensoleillement
rr = Quantités de précipitations

stations d'obs. à proximité